Nearby METAR Reports

 

KSNK - Snyder/Winston, Texas, USA
Distance from station: SSE 25mi, 41km
Updated: Wed, 14-Nov-2018 5:55pm CST
Clear
Clear
 Wind from calm
Wind: Calm
Temperature: 52°F , 11°C
Dew Point: 28°F , -2°C
Humidity: 41%
Barometer: 30.31 inHg , 1026.4 hPa
Clouds: Clear
Visibility: 10 miles , 16 km
2018/11/14 23:55 KSNK 142355Z AUTO 00000KT 10SM CLR 11/M02 A3031 RMK AO2 T01101024
KSWW - Sweetwater, Texas, USA
Distance from station: SE 56mi, 90km
Updated: Wed, 14-Nov-2018 5:55pm CST
Clear
Clear
 Wind from ENE
Wind: ENE 3 mph , 6 km/h
Temperature: 48°F , 9°C
Dew Point: 27°F , -3°C
Humidity: 43%
Barometer: 30.33 inHg , 1027.1 hPa
Clouds: Clear
Visibility: 10 miles , 16 km
2018/11/14 23:55 KSWW 142355Z AUTO 07003KT 10SM CLR 09/M03 A3033 RMK AO2 T00881026 10122 20083
 
KLBB - Lubbock, Texas, USA
Distance from station: NW 59mi, 94km
Updated: Wed, 14-Nov-2018 5:53pm CST
Few Clouds
Few Clouds
 Wind from calm
Wind: Calm
Temperature: 50°F , 10°C
Dew Point: 28°F , -2°C
Humidity: 43%
Barometer: 30.29 inHg , 1025.7 hPa
Clouds: Few Clouds
Visibility: 10 miles , 16 km
Cloud details: Few Clouds 25000 ft
2018/11/14 23:53 KLBB 142353Z 00000KT 10SM FEW250 10/M02 A3029 RMK AO2 SLP258 T01001022 10139 20100 56008
KPVW - Plainview, Texas, USA
Distance from station: NNW 85mi, 137km
Updated: Wed, 14-Nov-2018 5:55pm CST
Clear
Clear
 Wind from N
Wind: N 5 mph , 7 km/h
Temperature: 46°F , 8°C
Wind Chill: 44°F , 7°C
Dew Point: 27°F , -3°C
Humidity: 46%
Barometer: 30.28 inHg , 1025.4 hPa
Clouds: Clear
Visibility: 10 miles , 16 km
2018/11/14 23:55 KPVW 142355Z AUTO 01004KT 10SM CLR 08/M03 A3028 RMK AO2 T00781033 10114 20078
 
KDYS - Dyess Afb/Abilen, Texas, USA
Distance from station: ESE 88mi, 141km
Updated: Wed, 14-Nov-2018 5:56pm CST
Clear
Clear
 Wind from calm
Wind: Calm
Temperature: 45°F , 7°C
Dew Point: 23°F , -5°C
Humidity: 42%
Barometer: 30.31 inHg , 1026.4 hPa
Clouds: Clear
Visibility: 10 miles , 16 km
2018/11/14 23:56 KDYS 142356Z AUTO 00000KT 10SM CLR 07/M05 A3031 RMK AO2 SLP280 T00681046 10119 20068 57006 $
KGNC - Seminole, Texas, USA
Distance from station: WSW 89mi, 144km
Updated: Wed, 14-Nov-2018 5:55pm CST
Clear
Clear
 Wind from calm
Wind: Calm
Temperature: 52°F , 11°C
Dew Point: 25°F , -4°C
Humidity: 35%
Barometer: 30.33 inHg , 1027.1 hPa
Clouds: Clear
Visibility: 10 miles , 16 km
2018/11/14 23:55 KGNC 142355Z AUTO 00000KT 10SM CLR 11/M04 A3033 RMK AO2 T01141040 10145 20109
 
KE11 - Andrews, Texas, USA
Distance from station: WSW 93mi, 149km
Updated: Wed, 14-Nov-2018 5:55pm CST
Clear
Clear
 Wind from ENE
Wind: ENE 5 mph , 7 km/h
Temperature: 50°F , 10°C
Wind Chill: 48°F , 9°C
Dew Point: 27°F , -3°C
Humidity: 40%
Barometer: 30.30 inHg , 1026.1 hPa
Clouds: Clear
Visibility: 10 miles , 16 km
2018/11/14 23:55 KE11 142355Z AUTO 06004KT 10SM CLR 10/M03 A3030 RMK AO2 T01021034 10146 20102
KABI - Abilene, Texas, USA
Distance from station: ESE 96mi, 154km
Updated: Wed, 14-Nov-2018 5:52pm CST
Clear
Clear
 Wind from N
Wind: N 6 mph , 9 km/h
Temperature: 48°F , 9°C
Wind Chill: 45°F , 7°C
Dew Point: 19°F , -7°C
Humidity: 32%
Barometer: 30.32 inHg , 1026.8 hPa
Clouds: Clear
Visibility: 10 miles , 16 km
2018/11/14 23:52 KABI 142352Z 35005KT 10SM CLR 09/M07 A3032 RMK AO2 SLP274 T00891067 10133 20089 56007
 
KMAF - Midland, Texas, USA
Distance from station: SW 96mi, 154km
Updated: Wed, 14-Nov-2018 5:53pm CST
Clear
Clear
 Wind from E
Wind: E 3 mph , 6 km/h
Temperature: 54°F , 12°C
Dew Point: 27°F , -3°C
Humidity: 35%
Barometer: 30.30 inHg , 1026.1 hPa
Clouds: Clear
Visibility: 10 miles , 16 km
2018/11/14 23:53 KMAF 142353Z 10003KT 10SM CLR 12/M03 A3030 RMK AO2 SLP254 T01221028 10156 20117 56012
KCDS - Childress, Texas, USA
Distance from station: NNE 110mi, 177km
Updated: Wed, 14-Nov-2018 5:53pm CST
Clear
Clear
 Wind from SE
Wind: SE 8 mph , 13 km/h
Temperature: 46°F , 8°C
Wind Chill: 42°F , 6°C
Dew Point: 32°F , 0°C
Humidity: 57%
Barometer: 30.29 inHg , 1025.7 hPa
Clouds: Clear
Visibility: 10 miles , 16 km
2018/11/14 23:53 KCDS 142353Z AUTO 13007KT 10SM CLR 08/00 A3029 RMK AO2 SLP267 T00780000 10128 20078 56011
 
KSJT - San Angelo, Texas, USA
Distance from station: SSE 121mi, 194km
Updated: Wed, 14-Nov-2018 5:51pm CST
Clear
Clear
 Wind from N
Wind: N 8 mph , 13 km/h
Temperature: 48°F , 9°C
Wind Chill: 44°F , 7°C
Dew Point: 28°F , -2°C
Humidity: 46%
Barometer: 30.31 inHg , 1026.4 hPa
Clouds: Clear
Visibility: 10 miles , 16 km
2018/11/14 23:51 KSJT 142351Z 36007KT 10SM CLR 09/M02 A3031 RMK AO2 SLP276 T00941022 10161 20094 56009
KHOB - Hobbs/Lea Co., New Mexico, USA
Distance from station: WSW 122mi, 196km
Updated: Wed, 14-Nov-2018 5:50pm CST
Clear
Clear
 Wind from calm
Wind: Calm
Temperature: 54°F , 12°C
Dew Point: 23°F , -5°C
Humidity: 30%
Barometer: 30.29 inHg , 1025.7 hPa
Clouds: Clear
Visibility: 10 miles , 16 km
2018/11/14 23:50 KHOB 142350Z 00000KT 10SM CLR 12/M05 A3029
 
KCOM - Coleman Muni, Texas, USA
Distance from station: SE 131mi, 212km
Updated: Wed, 14-Nov-2018 5:55pm CST
Clear
Clear
 Wind from calm
Wind: Calm
Temperature: 52°F , 11°C
Dew Point: 23°F , -5°C
Humidity: 32%
Barometer: 30.31 inHg , 1026.4 hPa
Clouds: Clear
Visibility: 10 miles , 16 km
2018/11/14 23:55 KCOM 142355Z AUTO 00000KT 10SM CLR 11/M05 A3031 RMK AO2 T01061055 10130 20100
KBKD - Breckenridge, Texas, USA
Distance from station: E 134mi, 215km
Updated: Wed, 14-Nov-2018 5:55pm CST
Clear
Clear
 Wind from calm
Wind: Calm
Temperature: 50°F , 10°C
Dew Point: 18°F , -8°C
Humidity: 28%
Barometer: 30.32 inHg , 1026.8 hPa
Clouds: Clear
Visibility: 10 miles , 16 km
2018/11/14 23:55 KBKD 142355Z AUTO 00000KT 10SM CLR 10/M08 A3032 RMK AO2 T01001077 10120 20088
 
KF05 - Vernon Wilbarger, Texas, USA
Distance from station: NE 137mi, 220km
Updated: Wed, 14-Nov-2018 5:55pm CST
Clear
Clear
 Wind from calm
Wind: Calm
Temperature: 48°F , 9°C
Dew Point: 27°F , -3°C
Humidity: 43%
Barometer: 30.33 inHg , 1027.1 hPa
Clouds: Clear
Visibility: 10 miles , 16 km
2018/11/14 23:55 KF05 142355Z AUTO 00000KT 10SM CLR 09/M03 A3033 RMK AO1 T00921027